Columbus, North Carolina
Current Conditions -  °F | °C
As of 10:35 AM on Thursday 23 Oct 2014 (Local Time) from KFQD Reporting Station
Clear Clear  
Wind Chill: 57°   Ceiling: Unl
Heat Index: 57°   Visibility: 10mi
Dew Point: 39°   Wind: 7mph
Humidity: 51%   Direction: 360°N
Pressure: 30.12"   Gusts: 16mph
Location:  35.25°N, 82.2°W
Report Text: KFQD 231435Z AUTO 36006G14KT 10SM CLR 14/04 A3012 RMK AO2 T01380039
Loading
Personal Weather Stations






























Interactive Weather Map
Tropical Storm Tracking
New forecast layout! Learn more

10-Day Weather Forecast

Advertisements
Track Severe Weather on mobile